Time;durP1;ratioP1;P1;durP2;ratioP2;P2;SDS_P1;SDS_P2;PMS_P1;PMS_P2;Temp;Humidity;BMP_temperature;BMP_pressure;BME280_temperature;BME280_humidity;BME280_pressure;Samples;Min_cycle;Max_cycle;Signal;HPM_P1;HPM_P2
2023/01/21 00:01:10;;;;;;;30.48;17.85;;;;;;;;;;4977165;28;20427;-91
2023/01/21 00:03:36;;;;;;;31.77;16.98;;;;;;;;;;4977036;28;20423;-93
2023/01/21 00:06:02;;;;;;;27.25;14.80;;;;;;;;;;4976905;28;20038;-93
2023/01/21 00:08:29;;;;;;;27.08;15.90;;;;;;;;;;4977259;28;20452;-92
2023/01/21 00:10:55;;;;;;;28.60;15.30;;;;;;;;;;4976806;28;20102;-95
2023/01/21 00:13:21;;;;;;;28.55;15.10;;;;;;;;;;4976829;28;20050;-90
2023/01/21 00:15:47;;;;;;;30.13;14.55;;;;;;;;;;4976773;28;20042;-91
2023/01/21 00:18:14;;;;;;;25.13;15.25;;;;;;;;;;4976641;28;20491;-92
2023/01/21 00:20:40;;;;;;;35.00;14.75;;;;;;;;;;4976535;28;20126;-91
2023/01/21 00:23:06;;;;;;;28.27;15.52;;;;;;;;;;4944302;28;20181;-90
2023/01/21 00:25:32;;;;;;;31.67;16.05;;;;;;;;;;4946668;28;20062;-90
2023/01/21 00:27:59;;;;;;;35.58;14.90;;;;;;;;;;4945510;28;20407;-91
2023/01/21 00:30:25;;;;;;;26.13;14.77;;;;;;;;;;4976884;28;20069;-91
2023/01/21 00:32:52;;;;;;;32.90;16.70;;;;;;;;;;4976500;28;20050;-90
2023/01/21 00:35:18;;;;;;;32.63;16.23;;;;;;;;;;4976369;28;20078;-90
2023/01/21 00:37:44;;;;;;;30.75;15.45;;;;;;;;;;4945115;28;20042;-89
2023/01/21 00:40:10;;;;;;;28.52;15.77;;;;;;;;;;4976880;28;20070;-89
2023/01/21 00:42:36;;;;;;;35.13;15.77;;;;;;;;;;4976561;28;20138;-91
2023/01/21 00:45:02;;;;;;;31.33;15.38;;;;;;;;;;4976587;28;20049;-90
2023/01/21 00:47:28;;;;;;;32.08;16.15;;;;;;;;;;4944790;28;20050;-91
2023/01/21 00:49:54;;;;;;;33.05;16.55;;;;;;;;;;4944689;28;20042;-93
2023/01/21 00:52:20;;;;;;;33.72;16.48;;;;;;;;;;4944694;28;20050;-91
2023/01/21 00:54:46;;;;;;;27.58;15.45;;;;;;;;;;4944469;28;20050;-93
2023/01/21 00:57:12;;;;;;;33.05;17.13;;;;;;;;;;4979091;28;20125;-90
2023/01/21 00:59:39;;;;;;;28.13;15.05;;;;;;;;;;4980309;28;20112;-90
2023/01/21 01:02:05;;;;;;;33.83;16.67;;;;;;;;;;4948135;28;20483;-90
2023/01/21 01:04:31;;;;;;;31.45;15.63;;;;;;;;;;4948681;28;20065;-94
2023/01/21 01:06:57;;;;;;;29.55;16.70;;;;;;;;;;4948396;28;20046;-91
2023/01/21 01:09:23;;;;;;;28.98;16.23;;;;;;;;;;4979809;28;20046;-91
2023/01/21 01:11:49;;;;;;;30.48;16.77;;;;;;;;;;4979971;28;20046;-90
2023/01/21 01:14:15;;;;;;;32.75;17.10;;;;;;;;;;4980178;28;20053;-92
2023/01/21 01:16:41;;;;;;;29.45;15.65;;;;;;;;;;4948402;28;20125;-90
2023/01/21 01:19:08;;;;;;;34.88;17.08;;;;;;;;;;4981802;28;20050;-90
2023/01/21 01:21:34;;;;;;;27.65;16.10;;;;;;;;;;4981090;28;20046;-91
2023/01/21 01:24:02;;;;;;;34.25;16.17;;;;;;;;;;4980471;28;20047;-90
2023/01/21 01:26:28;;;;;;;26.95;15.85;;;;;;;;;;4964234;28;20117;-92
2023/01/21 01:28:54;;;;;;;31.30;16.10;;;;;;;;;;4979686;28;20046;-92
2023/01/21 01:31:22;;;;;;;27.67;15.38;;;;;;;;;;4979664;28;20203;-91
2023/01/21 01:33:48;;;;;;;32.40;15.77;;;;;;;;;;4979409;28;20049;-93
2023/01/21 01:36:15;;;;;;;30.52;16.92;;;;;;;;;;4964016;28;20054;-90
2023/01/21 01:38:42;;;;;;;26.00;14.95;;;;;;;;;;4979707;28;20057;-90
2023/01/21 01:41:08;;;;;;;29.45;15.40;;;;;;;;;;4979106;28;20133;-89
2023/01/21 01:43:56;;;;;;;30.15;16.70;;;;;;;;;;4947131;28;20132;-91
2023/01/21 01:46:22;;;;;;;29.27;14.80;;;;;;;;;;4979193;28;20038;-89
2023/01/21 01:48:52;;;;;;;32.10;17.30;;;;;;;;;;4978754;28;20046;-89
2023/01/21 01:51:19;;;;;;;30.40;15.85;;;;;;;;;;4979076;28;20065;-90
2023/01/21 01:53:46;;;;;;;31.85;16.38;;;;;;;;;;4979170;28;20403;-89
2023/01/21 01:56:12;;;;;;;29.42;15.75;;;;;;;;;;4979285;28;20042;-90
2023/01/21 01:58:39;;;;;;;27.55;14.95;;;;;;;;;;4978824;28;20495;-90
2023/01/21 02:01:05;;;;;;;27.50;15.57;;;;;;;;;;4979152;28;20043;-89
2023/01/21 02:03:45;;;;;;;31.67;15.80;;;;;;;;;;4946780;28;20046;-89
2023/01/21 02:06:15;;;;;;;29.45;16.08;;;;;;;;;;4979309;28;20100;-92
2023/01/21 02:08:42;;;;;;;33.20;17.45;;;;;;;;;;4979090;28;20054;-90
2023/01/21 02:11:13;;;;;;;30.83;16.58;;;;;;;;;;4978705;28;20109;-90
2023/01/21 02:13:40;;;;;;;30.27;15.43;;;;;;;;;;4978780;28;20046;-90
2023/01/21 02:16:09;;;;;;;32.83;17.88;;;;;;;;;;4978623;28;20491;-90
2023/01/21 02:18:45;;;;;;;34.60;17.52;;;;;;;;;;4978545;28;20050;-92
2023/01/21 02:21:49;;;;;;;32.03;17.10;;;-0.70;99.90;;;;;;4978443;28;20060;-90
2023/01/21 02:24:21;;;;;;;40.22;18.73;;;;;;;;;;4978538;28;20148;-89
2023/01/21 02:26:47;;;;;;;40.40;19.17;;;;;;;;;;4978342;28;20058;-91
2023/01/21 02:29:13;;;;;;;33.83;17.10;;;;;;;;;;4978473;28;20062;-90
2023/01/21 02:31:39;;;;;;;35.03;17.30;;;;;;;;;;4978418;28;20042;-90
2023/01/21 02:34:08;;;;;;;34.05;17.90;;;;;;;;;;4978148;28;20050;-90
2023/01/21 02:36:58;;;;;;;34.38;18.60;;;;;;;;;;4978399;28;20035;-91
2023/01/21 02:39:48;;;;;;;35.97;18.30;;;;;;;;;;4978020;28;20034;-93
2023/01/21 02:42:17;;;;;;;36.10;16.85;;;;;;;;;;4978918;28;20050;-94
2023/01/21 02:44:52;;;;;;;39.17;19.02;;;;;;;;;;4978230;28;20042;-90
2023/01/21 02:47:22;;;;;;;35.80;16.75;;;;;;;;;;4978174;28;20042;-91
2023/01/21 02:50:02;;;;;;;28.75;16.63;;;;;;;;;;4977823;28;20495;-89
2023/01/21 02:52:28;;;;;;;39.45;19.13;;;;;;;;;;4978385;28;20471;-90
2023/01/21 02:54:56;;;;;;;37.63;18.77;;;;;;;;;;4946124;28;20050;-89
2023/01/21 02:57:42;;;;;;;32.38;17.58;;;;;;;;;;4977749;28;20042;-89
2023/01/21 03:00:20;;;;;;;43.78;19.55;;;;;;;;;;4961104;28;20053;-88
2023/01/21 03:02:46;;;;;;;38.78;17.23;;;;;;;;;;4977801;28;20045;-89
2023/01/21 03:05:21;;;;;;;37.97;18.20;;;;;;;;;;4977496;28;20042;-89
2023/01/21 03:07:50;;;;;;;38.67;18.45;;;;;;;;;;4977666;28;20049;-90
2023/01/21 03:10:31;;;;;;;35.53;17.95;;;;;;;;;;4977844;28;20054;-92
2023/01/21 03:13:04;;;;;;;32.80;18.45;;;;;;;;;;4977626;28;20077;-90
2023/01/21 03:18:38;;;;;;;38.20;17.88;;;;;;;;;;4977199;28;20085;-89
2023/01/21 03:21:10;;;;;;;32.88;15.95;;;;;;;;;;4977967;28;20050;-90
2023/01/21 03:23:38;;;;;;;30.77;16.15;;;;;;;;;;4977438;28;20510;-91
2023/01/21 03:26:06;;;;;;;35.05;17.70;;;;;;;;;;4977085;28;20085;-90
2023/01/21 03:28:33;;;;;;;35.90;18.58;;;;;;;;;;4977402;28;20080;-91
2023/01/21 03:31:08;;;;;;;32.08;17.50;;;;;;;;;;4977550;28;20097;-90
2023/01/21 03:33:37;;;;;;;34.30;16.33;;;;;;;;;;4977183;28;20046;-90
2023/01/21 03:36:07;;;;;;;36.38;17.45;;;;;;;;;;4977111;28;20046;-89
2023/01/21 03:38:37;;;;;;;33.13;18.48;;;;;;;;;;4977309;28;20057;-89
2023/01/21 03:41:18;;;;;;;48.28;20.50;;;;;;;;;;4976933;28;20053;-89
2023/01/21 03:43:44;;;;;;;38.53;18.55;;;;;;;;;;4977287;28;20050;-90
2023/01/21 03:46:11;;;;;;;38.13;18.10;;;;;;;;;;4976815;28;20049;-90
2023/01/21 03:48:55;;;;;;;35.20;18.60;;;;;;;;;;4977227;28;20096;-89
2023/01/21 03:51:23;;;;;;;35.67;19.42;;;;;;;;;;4976998;28;20049;-89
2023/01/21 03:53:56;;;;;;;40.40;19.50;;;;;;;;;;4976543;28;20050;-89
2023/01/21 03:56:23;;;;;;;39.60;19.98;;;;;;;;;;4977345;28;20051;-89
2023/01/21 03:58:49;;;;;;;34.17;17.85;;;;;;;;;;4976794;28;20046;-89
2023/01/21 04:01:15;;;;;;;40.33;19.50;;;;;;;;;;4945148;28;20449;-89
2023/01/21 04:03:42;;;;;;;36.03;19.58;;;;;;;;;;4977079;28;20108;-89
2023/01/21 04:06:18;;;;;;;43.42;21.30;;;;;;;;;;4976745;28;20055;-91
2023/01/21 04:08:44;;;;;;;41.10;19.52;;;;;;;;;;4976719;28;20065;-89
2023/01/21 04:11:11;;;;;;;38.35;18.55;;;;;;;;;;4976399;28;20042;-90
2023/01/21 04:13:37;;;;;;;39.00;18.73;;;;;;;;;;4976425;28;20050;-89
2023/01/21 04:16:03;;;;;;;37.20;18.88;;;;;;;;;;4976926;28;20134;-90
2023/01/21 04:18:29;;;;;;;44.00;21.00;;;;;;;;;;4944592;28;20042;-91
2023/01/21 04:20:55;;;;;;;41.17;18.70;;;;;;;;;;4944989;28;20069;-90
2023/01/21 04:23:21;;;;;;;38.13;20.10;;;;;;;;;;4976517;28;20053;-91
2023/01/21 04:25:51;;;;;;;40.63;20.10;;;;;;;;;;4944188;28;20558;-90
2023/01/21 04:28:17;;;;;;;37.67;20.02;;;;;;;;;;4976815;28;20054;-90
2023/01/21 04:30:43;;;;;;;36.20;19.73;;;;;;;;;;4945105;28;20043;-90
2023/01/21 04:33:09;;;;;;;40.05;20.30;;;;;;;;;;4980263;28;20050;-89
2023/01/21 04:35:36;;;;;;;42.53;21.00;;;;;;;;;;4964162;28;20046;-90
2023/01/21 04:38:02;;;;;;;41.42;20.85;;;;;;;;;;4980387;28;20132;-89
2023/01/21 04:40:28;;;;;;;47.30;20.88;;;;;;;;;;4980629;28;20077;-89
2023/01/21 04:42:54;;;;;;;40.60;20.52;;;;;;;;;;4964440;28;20049;-90
2023/01/21 04:45:20;;;;;;;47.15;21.60;;;;;;;;;;4948507;28;20046;-89
2023/01/21 04:47:46;;;;;;;46.28;22.00;;;;;;;;;;4980473;28;20128;-89
2023/01/21 04:50:13;;;;;;;45.78;23.73;;;;;;;;;;4980769;28;20129;-89
2023/01/21 04:52:39;;;;;;;39.92;20.48;;;;;;;;;;4979969;28;20042;-90
2023/01/21 04:55:06;;;;;;;38.78;20.95;;;;;;;;;;4980119;28;20085;-90
2023/01/21 04:57:32;;;;;;;47.00;21.17;;;;;;;;;;4980431;28;20496;-92
2023/01/21 04:59:58;;;;;;;41.58;20.98;;;;;;;;;;4948321;28;20084;-90
2023/01/21 05:02:24;;;;;;;39.60;21.73;;;;;;;;;;4980000;28;20495;-91
2023/01/21 05:04:50;;;;;;;43.05;22.23;;;;;;;;;;4979792;28;20487;-90
2023/01/21 05:07:16;;;;;;;40.85;21.15;;;;;;;;;;4979734;28;20096;-90
2023/01/21 05:09:42;;;;;;;44.60;22.35;;;;;;;;;;4979648;28;20078;-89
2023/01/21 05:12:08;;;;;;;38.67;21.58;;;;;;;;;;4979500;28;20554;-89
2023/01/21 05:14:37;;;;;;;43.72;21.67;;;;;;;;;;4979695;28;20446;-89
2023/01/21 05:17:03;;;;;;;42.72;21.58;;;;;;;;;;4980038;28;20464;-89
2023/01/21 05:19:29;;;;;;;44.70;21.40;;;;;;;;;;4979732;28;20038;-91
2023/01/21 05:21:55;;;;;;;45.95;23.70;;;;;;;;;;4979361;28;20049;-89
2023/01/21 05:24:21;;;;;;;40.40;20.73;;;;;;;;;;4947612;28;20046;-89
2023/01/21 05:26:48;;;;;;;44.05;20.58;;;;;;;;;;4979376;28;20062;-89
2023/01/21 05:29:15;;;;;;;41.95;19.95;;;;;;;;;;4979890;28;20132;-90
2023/01/21 05:31:42;;;;;;;34.00;19.83;;;;;;;;;;4948004;28;20046;-90
2023/01/21 05:34:08;;;;;;;38.50;19.73;;;;;;;;;;4980627;28;20136;-88
2023/01/21 05:36:34;;;;;;;42.80;20.52;;;;;;;;;;4980199;28;20090;-90
2023/01/21 05:39:01;;;;;;;41.70;21.33;;;;;;;;;;4979553;28;20519;-91
2023/01/21 05:41:27;;;;;;;42.47;21.80;;;;;;;;;;4947250;28;20125;-91
2023/01/21 05:43:53;;;;;;;39.08;19.45;;;;;;;;;;4947516;28;20054;-89
2023/01/21 05:46:19;;;;;;;40.75;21.75;;;;;;;;;;4947359;28;20046;-90
2023/01/21 05:48:45;;;;;;;39.72;20.85;;;;;;;;;;4979665;28;20038;-89
2023/01/21 05:51:11;;;;;;;37.05;20.10;;;;;;;;;;4947880;28;20045;-90
2023/01/21 05:53:37;;;;;;;39.92;20.73;;;;;;;;;;4979076;28;20455;-89
2023/01/21 05:56:03;;;;;;;38.95;19.33;;;;;;;;;;4978999;28;20084;-89
2023/01/21 05:58:29;;;;;;;37.85;19.98;;;;;;;;;;4979511;28;20070;-89
2023/01/21 06:00:57;;;;;;;41.42;20.98;;;;;;;;;;4947290;28;20053;-89
2023/01/21 06:03:23;;;;;;;51.28;21.40;;;;;;;;;;4947433;28;20038;-90
2023/01/21 06:05:49;;;;;;;44.08;20.52;;;;;;;;;;4978971;28;20053;-90
2023/01/21 06:08:16;;;;;;;42.15;21.23;;;;;;;;;;4979162;28;20450;-90
2023/01/21 06:10:42;;;;;;;37.55;19.83;;;;;;;;;;4979002;28;20042;-91
2023/01/21 06:13:10;;;;;;;43.08;20.83;;;;;;;;;;4978884;28;20049;-90
2023/01/21 06:15:36;;;;;;;40.47;19.45;;;;;;;;;;4978914;28;20046;-90
2023/01/21 06:18:02;;;;;;;38.15;19.60;;;;;;;;;;4978685;28;20038;-88
2023/01/21 06:20:29;;;;;;;40.20;20.08;;;;;;;;;;4978451;28;20056;-89
2023/01/21 06:22:56;;;;;;;32.17;18.40;;;;;;;;;;4946492;28;20081;-90
2023/01/21 06:25:22;;;;;;;37.22;19.92;;;;;;;;;;4978612;28;20050;-89
2023/01/21 06:27:48;;;;;;;37.15;18.77;;;;;;;;;;4947543;28;20383;-91
2023/01/21 06:30:14;;;;;;;36.80;19.23;;;;;;;;;;4978595;28;20038;-90
2023/01/21 06:32:40;;;;;;;34.03;18.50;;;;;;;;;;4978448;28;20066;-89
2023/01/21 06:35:07;;;;;;;44.97;21.10;;;;;;;;;;4946581;28;20061;-90
2023/01/21 06:37:33;;;;;;;33.63;19.40;;;;;;;;;;4946123;28;20043;-90
2023/01/21 06:39:59;;;;;;;37.67;20.70;;;;;;;;;;4979203;28;20133;-90
2023/01/21 06:42:25;;;;;;;44.78;20.38;;;;;;;;;;4946064;28;20134;-92
2023/01/21 06:44:51;;;;;;;38.05;19.58;;;;;;;;;;4961887;28;20050;-91
2023/01/21 06:47:17;;;;;;;38.22;20.58;;;;;;;;;;4977894;28;20089;-90
2023/01/21 06:49:43;;;;;;;38.55;20.17;;;;;;;;;;4961986;28;20065;-90
2023/01/21 06:52:09;;;;;;;41.88;20.40;;;;;;;;;;4978006;28;20133;-89
2023/01/21 06:54:35;;;;;;;38.28;21.02;;;;;;;;;;4976758;28;20042;-90
2023/01/21 06:57:01;;;;;;;41.58;20.20;;;;;;;;;;4978071;28;20400;-89
2023/01/21 06:59:27;;;;;;;43.97;19.85;;;;;;;;;;4945754;28;20057;-89
2023/01/21 07:01:54;;;;;;;47.95;22.55;;;;;;;;;;4978850;28;20101;-90
2023/01/21 07:04:20;;;;;;;40.75;19.98;;;;;;;;;;4977621;28;20504;-89
2023/01/21 07:06:46;;;;;;;39.63;20.98;;;;;;;;;;4945984;28;20042;-90
2023/01/21 07:09:12;;;;;;;40.08;20.02;;;;;;;;;;4945813;28;20085;-89
2023/01/21 07:11:38;;;;;;;37.05;18.88;;;;;;;;;;4961429;28;20053;-89
2023/01/21 07:14:04;;;;;;;39.80;21.45;;;;;;;;;;4945451;28;20043;-89
2023/01/21 07:16:30;;;;;;;41.22;21.08;;;;;;;;;;4977190;28;20046;-89
2023/01/21 07:18:56;;;;;;;40.95;20.90;;;;;;;;;;4977154;28;20061;-89
2023/01/21 07:21:24;;;;;;;42.75;20.75;;;;;;;;;;4945788;28;20442;-89
2023/01/21 07:23:51;;;;;;;43.88;22.85;;;;;;;;;;4978085;28;20052;-88
2023/01/21 07:26:17;;;;;;;41.05;22.73;;;;;;;;;;4977586;28;20123;-88
2023/01/21 07:28:43;;;;;;;46.03;21.98;;;;;;;;;;4945905;28;20146;-90
2023/01/21 07:31:10;;;;;;;40.28;21.45;;;;;;;;;;4978211;28;20038;-90
2023/01/21 07:33:36;;;;;;;40.78;22.08;;;;;;;;;;4977065;28;20185;-89
2023/01/21 07:36:02;;;;;;;37.88;20.17;;;;;;;;;;4977755;28;20050;-92
2023/01/21 07:38:28;;;;;;;44.10;22.35;;;;;;;;;;4977129;28;20099;-89
2023/01/21 07:40:57;;;;;;;42.70;22.83;;;;;;;;;;4977436;28;20483;-91
2023/01/21 07:43:23;;;;;;;49.70;21.83;;;;;;;;;;4977202;28;20077;-90
2023/01/21 07:45:49;;;;;;;40.58;21.55;;;;;;;;;;4945141;28;20470;-89
2023/01/21 07:48:15;;;;;;;42.38;22.75;;;;;;;;;;4976849;28;20056;-88
2023/01/21 07:50:41;;;;;;;39.10;21.08;;;;;;;;;;4977539;28;20043;-88
2023/01/21 07:53:08;;;;;;;42.03;21.58;;;;;;;;;;4976815;28;20097;-89
2023/01/21 07:55:34;;;;;;;46.70;22.42;;;;;;;;;;4976745;28;20046;-89
2023/01/21 07:58:00;;;;;;;44.00;21.30;;;;;;;;;;4977254;28;20182;-89
2023/01/21 08:00:28;;;;;;;44.42;23.48;;;;;;;;;;4976847;28;20042;-89
2023/01/21 08:02:55;;;;;;;47.65;21.83;;;;;;;;;;4945076;28;20042;-89
2023/01/21 08:05:21;;;;;;;46.03;22.15;;;;;;;;;;4976769;28;20080;-88
2023/01/21 08:07:47;;;;;;;36.65;20.42;;;;;;;;;;4976630;28;20074;-90
2023/01/21 08:10:14;;;;;;;44.92;21.98;;;;;;;;;;4976920;28;20129;-87
2023/01/21 08:12:40;;;;;;;41.47;21.33;;;;;;;;;;4944865;28;20039;-87
2023/01/21 08:15:07;;;;;;;36.92;20.77;;;;;;;;;;4976490;28;20137;-87
2023/01/21 08:17:33;;;;;;;39.40;20.67;;;;;;;;;;4944810;28;20089;-88
2023/01/21 08:19:59;;;;;;;47.03;23.80;;;;;;;;;;4976546;28;20052;-88
2023/01/21 08:22:25;;;;;;;51.53;24.27;;;;;;;;;;4944565;28;20057;-89
2023/01/21 08:24:51;;;;;;;45.92;24.30;;;;;;;;;;4944357;28;20499;-90
2023/01/21 08:27:17;;;;;;;52.22;24.73;;;;;;;;;;4944832;28;20050;-89
2023/01/21 08:29:43;;;;;;;63.63;30.90;;;;;;;;;;4976630;28;20562;-87
2023/01/21 08:32:10;;;;;;;54.78;27.25;;;;;;;;;;4944489;28;20060;-87
2023/01/21 08:34:36;;;;;;;45.85;22.80;;;;;;;;;;4944183;28;20050;-87
2023/01/21 08:37:02;;;;;;;42.83;23.88;;;;;;;;;;4976360;28;20050;-87
2023/01/21 08:39:28;;;;;;;39.65;20.63;;;;;;;;;;4960315;28;20046;-87
2023/01/21 08:41:54;;;;;;;43.72;23.15;;;;;;;;;;4976702;28;20463;-87
2023/01/21 08:44:20;;;;;;;51.63;22.60;;;;;;;;;;4944150;28;20500;-88
2023/01/21 08:46:46;;;;;;;46.35;23.38;;;;;;;;;;4976030;28;20054;-89
2023/01/21 08:49:12;;;;;;;46.15;20.63;;;;;;;;;;4944475;28;20085;-89
2023/01/21 08:51:38;;;;;;;43.90;22.65;;;;;;;;;;4976050;28;20039;-89
2023/01/21 08:54:04;;;;;;;42.75;22.98;;;;;;;;;;4976551;28;20047;-89
2023/01/21 08:56:30;;;;;;;50.17;25.98;;;;;;;;;;4943845;28;20050;-90
2023/01/21 08:58:57;;;;;;;47.65;22.65;;;;;;;;;;4976643;28;20065;-93
2023/01/21 09:01:24;;;;;;;44.40;25.52;;;;;;;;;;4979958;28;20055;-89
2023/01/21 09:03:57;;;;;;;50.25;25.33;;;;;;;;;;4966025;28;20054;-90
2023/01/21 09:06:24;;;;;;;46.28;25.52;;;;;;;;;;4953614;28;20047;-90
2023/01/21 09:08:50;;;;;;;53.78;25.13;;;;;;;;;;4953390;28;20046;-90
2023/01/21 09:11:17;;;;;;;50.70;25.23;;;;;;;;;;4952968;28;20478;-90
2023/01/21 09:13:43;;;;;;;44.72;26.58;;;;;;;;;;4982220;28;20057;-91
2023/01/21 09:16:11;;;;;;;53.80;26.70;;;;;;;;;;4982469;28;20050;-91
2023/01/21 09:18:38;;;;;;;49.35;26.88;;;;;;;;;;4986436;28;20553;-92
2023/01/21 09:21:05;;;;;;;45.60;25.27;;;;;;;;;;4986054;28;20487;-92
2023/01/21 09:23:33;;;;;;;48.95;25.90;;;;;;;;;;4985635;28;20043;-92
2023/01/21 09:26:15;;;;;;;62.40;25.25;;;;;;;;;;4990287;28;20089;-92
2023/01/21 09:28:42;;;;;;;52.17;25.48;;;;;;;;;;4987362;28;20407;-92
2023/01/21 09:31:13;;;;;;;50.95;24.85;;;;;;;;;;4985856;28;20046;-92
2023/01/21 09:33:41;;;;;;;47.15;24.15;;;;;;;;;;4985503;28;20399;-92
2023/01/21 09:36:08;;;;;;;49.78;24.20;;;;;;;;;;4983109;28;20042;-92
2023/01/21 09:38:34;;;;;;;50.60;25.77;;;;;;;;;;4980628;28;20132;-92
2023/01/21 09:41:12;;;;;;;49.95;25.42;;;;;;;;;;4979447;28;20046;-92
2023/01/21 09:43:44;;;;;;;52.50;26.45;;;;;;;;;;4979812;28;20066;-93
2023/01/21 09:46:17;;;;;;;55.42;27.95;;;;;;;;;;4980197;28;20391;-92
2023/01/21 09:48:44;;;;;;;52.25;25.00;;;;;;;;;;4979719;28;20038;-92
2023/01/21 09:51:20;;;;;;;52.42;25.30;;;;;;;;;;4980094;28;20472;-92
2023/01/21 09:53:51;;;;;;;57.03;26.40;;;;;;;;;;4979833;28;20050;-92
2023/01/21 09:56:22;;;;;;;56.65;27.05;;;;;;;;;;4979439;28;20056;-92
2023/01/21 09:58:58;;;;;;;53.50;26.90;;;;;;;;;;4979485;28;20038;-92
2023/01/21 10:01:28;;;;;;;47.63;24.70;;;;;;;;;;4979852;28;20491;-92
2023/01/21 10:03:55;;;;;;;55.92;27.52;;;;;;;;;;4979799;28;20058;-92
2023/01/21 10:06:43;;;;;;;54.95;26.30;;;;;;;;;;4979388;28;20046;-92
2023/01/21 10:09:33;;;;;;;48.80;24.65;;;;;;;;;;4979353;28;20114;-92
2023/01/21 10:12:09;;;;;;;42.15;24.05;;;;;;;;;;4979138;28;20042;-92
2023/01/21 10:14:35;;;;;;;50.83;26.95;;;;;;;;;;4979150;28;20226;-92
2023/01/21 11:27:03;;;;;;;33.72;17.77;;;;;;;;;;4981071;28;20097;-89
2023/01/21 11:30:06;;;;;;;32.75;17.10;;;;;;;;;;4942451;28;20142;-90
2023/01/21 11:36:31;;;;;;;33.53;17.48;;;;;;;;;;4935539;29;20107;-89
2023/01/21 11:39:07;;;;;;;32.05;16.10;;;;;;;;;;4903475;29;20060;-90
2023/01/21 11:41:37;;;;;;;30.02;14.90;;;;;;;;;;4928682;23;20047;-90
2023/01/21 11:44:15;;;;;;;26.88;15.07;;;;;;;;;;4919648;29;20094;-89
2023/01/21 11:46:44;;;;;;;34.58;17.23;;;;;;;;;;4921108;29;20099;-90
2023/01/21 11:49:20;;;;;;;28.30;16.17;;;;;;;;;;4920735;29;20553;-90
2023/01/21 11:55:46;;;;;;;33.13;17.15;;;;;;;;;;4937560;29;20124;-90
2023/01/21 12:01:33;;;;;;;26.35;15.95;;;;;;;;;;4971148;23;20078;-90
2023/01/21 15:35:08;;;;;;;;;;;2.50;99.90;;;;;;4947224;23;20469;-90
2023/01/21 15:37:47;;;;;;;6.22;5.05;;;;;;;;;;4821761;29;19924;-90
2023/01/21 15:40:18;;;;;;;7.03;5.45;;;;;;;;;;4830262;29;20061;-89
2023/01/21 15:43:09;;;;;;;10.30;5.15;;;;;;;;;;4829859;29;20049;-89
2023/01/21 15:45:53;;;;;;;8.50;6.07;;;;;;;;;;4829958;29;20060;-90
2023/01/21 15:48:32;;;;;;;7.40;5.80;;;;;;;;;;4830620;29;20056;-89
2023/01/21 15:51:12;;;;;;;7.55;5.18;;;;;;;;;;4844660;29;20049;-90
2023/01/21 15:53:50;;;;;;;6.47;5.35;;;;;;;;;;4830186;29;20133;-90
2023/01/21 15:56:26;;;;;;;6.72;6.03;;;;;;;;;;4845117;29;20053;-91
2023/01/21 15:59:02;;;;;;;8.38;5.97;;;;;;;;;;4845149;29;20048;-90
2023/01/21 16:01:28;;;;;;;6.82;5.80;;;;;;;;;;4829644;29;20560;-89
2023/01/21 16:04:01;;;;;;;7.35;4.93;;;;;;;;;;4829536;29;20048;-89
2023/01/21 16:06:42;;;;;;;8.75;4.93;;;;;;;;;;4830070;29;20388;-89
2023/01/21 16:09:13;;;;;;;9.32;6.20;;;;;;;;;;4829787;29;20117;-89
2023/01/21 16:11:56;;;;;;;7.35;6.13;;;;;;;;;;4844958;29;20049;-89
2023/01/21 16:14:22;;;;;;;7.22;5.68;;;;;;;;;;4845049;29;20053;-89
2023/01/21 16:16:48;;;;;;;8.40;6.15;;;;;;;;;;4829337;29;20041;-89
2023/01/21 16:19:16;;;;;;;8.20;5.78;;;;;;;;;;4829488;29;20089;-89
2023/01/21 16:21:44;;;;;;;7.95;6.28;;;;;;;;;;4829402;29;20090;-90
2023/01/21 16:24:23;;;;;;;8.82;6.15;;;;;;;;;;4829297;29;20055;-89
2023/01/21 16:26:49;;;;;;;8.95;6.40;;;;;;;;;;4831868;29;20076;-89
2023/01/21 16:29:15;;;;;;;7.53;6.28;;;;;;;;;;4833452;29;20570;-89
2023/01/21 16:31:52;;;;;;;9.68;6.32;;;;;;;;;;4832789;29;20088;-89
2023/01/21 16:34:39;;;;;;;10.65;6.95;;;;;;;;;;4847788;29;20492;-88
2023/01/21 16:37:06;;;;;;;8.23;6.05;;;;;;;;;;4826401;29;20053;-88
2023/01/21 16:39:32;;;;;;;7.75;6.80;;;;;;;;;;4832681;29;20133;-88
2023/01/21 16:42:02;;;;;;;9.52;7.35;;;;;;;;;;4833200;29;20046;-89
2023/01/21 16:44:29;;;;;;;9.95;6.88;;;;;;;;;;4833054;29;20041;-86
2023/01/21 16:46:55;;;;;;;9.30;7.03;;;;;;;;;;4847967;29;20049;-87
2023/01/21 16:49:21;;;;;;;7.10;5.78;;;;;;;;;;4833053;29;20439;-87
2023/01/21 16:51:55;;;;;;;8.32;6.90;;;;;;;;;;4848335;29;20049;-87
2023/01/21 16:54:25;;;;;;;12.68;7.55;;;;;;;;;;4832218;29;20049;-87
2023/01/21 16:57:02;;;;;;;12.48;7.57;;;;;;;;;;4832425;29;20057;-87
2023/01/21 16:59:38;;;;;;;15.32;7.03;;;;;;;;;;4848692;29;20525;-88
2023/01/21 17:02:05;;;;;;;12.32;8.40;;;;;;;;;;4847511;29;20574;-87
2023/01/21 17:04:31;;;;;;;11.65;7.65;;;;;;;;;;4832260;29;20054;-87
2023/01/21 17:06:58;;;;;;;9.60;7.05;;;;;;;;;;4847385;29;20137;-87
2023/01/21 17:09:26;;;;;;;14.20;9.32;;;;;;;;;;4832216;29;20045;-88
2023/01/21 17:11:52;;;;;;;11.70;7.97;;;;;;;;;;4847711;29;20124;-88
2023/01/21 17:14:21;;;;;;;11.25;7.38;;;;;;;;;;4832206;29;20045;-88
2023/01/21 17:16:47;;;;;;;13.00;8.27;;;;;;;;;;4832242;29;20042;-88
2023/01/21 17:19:34;;;;;;;11.23;8.55;;;;;;;;;;4847564;29;20107;-88
2023/01/21 17:22:03;;;;;;;11.68;8.20;;;;;;;;;;4832122;29;20101;-87
2023/01/21 17:24:32;;;;;;;10.55;7.38;;;;;;;;;;4832257;29;20045;-88
2023/01/21 17:27:03;;;;;;;13.20;8.00;;;;;;;;;;4832572;29;20121;-87
2023/01/21 17:29:31;;;;;;;11.10;8.07;;;;;;;;;;4831926;29;20507;-87
2023/01/21 17:32:00;;;;;;;12.43;8.18;;;;;;;;;;4831812;29;20049;-87
2023/01/21 17:34:30;;;;;;;11.85;7.97;;;;;;;;;;4846906;29;20061;-87
2023/01/21 17:36:57;;;;;;;12.73;8.80;;;;;;;;;;4831698;29;20053;-87
2023/01/21 17:39:44;;;;;;;10.38;7.38;;;1.00;99.90;;;;;;4846331;29;20042;-86
2023/01/21 17:42:14;;;;;;;13.00;8.18;;;;;;;;;;4832584;29;20046;-88
2023/01/21 17:44:44;;;;;;;12.40;7.72;;;;;;;;;;4847583;29;20049;-87
2023/01/21 17:47:19;;;;;;;9.43;6.53;;;;;;;;;;4833811;29;20045;-88
2023/01/21 17:49:45;;;;;;;9.52;7.60;;;;;;;;;;4833079;29;20052;-87
2023/01/21 17:52:18;;;;;;;9.55;6.82;;;;;;;;;;4832027;29;20088;-88
2023/01/21 17:54:47;;;;;;;8.48;6.32;;;;;;;;;;4831985;29;20049;-89
2023/01/21 17:57:42;;;;;;;9.50;6.78;;;;;;;;;;4831593;29;20456;-89
2023/01/21 18:00:28;;;;;;;10.45;6.53;;;;;;;;;;4820362;29;20096;-88
2023/01/21 18:02:54;;;;;;;10.77;7.57;;;;;;;;;;4832026;29;20456;-89
2023/01/21 18:05:20;;;;;;;11.55;8.75;;;;;;;;;;4863383;29;20052;-87
2023/01/21 18:07:46;;;;;;;10.15;7.07;;;;;;;;;;4847345;29;20498;-89
2023/01/21 18:10:13;;;;;;;9.68;7.10;;;;;;;;;;4847395;29;20098;-87
2023/01/21 18:12:40;;;;;;;14.20;7.43;;;;;;;;;;4831620;29;20056;-87
2023/01/21 18:15:06;;;;;;;10.88;7.43;;;;;;;;;;4831538;29;20048;-87
2023/01/21 18:17:32;;;;;;;11.27;8.15;;;;;;;;;;4846654;29;20045;-87
2023/01/21 18:19:58;;;;;;;11.05;7.55;;;;;;;;;;4846926;29;20049;-88
2023/01/21 18:22:26;;;;;;;11.23;7.13;;;;;;;;;;4831267;29;20050;-90
2023/01/21 18:24:52;;;;;;;11.05;7.82;;;;;;;;;;4846475;29;20109;-88
2023/01/21 18:27:19;;;;;;;10.73;7.75;;;;;;;;;;4831407;29;20046;-88
2023/01/21 18:29:46;;;;;;;11.88;7.60;;;;;;;;;;4831301;29;20046;-88
2023/01/21 18:32:15;;;;;;;13.55;7.97;;;;;;;;;;4831943;29;20060;-89
2023/01/21 18:34:42;;;;;;;10.85;8.15;;;;;;;;;;4830827;29;20064;-88
2023/01/21 18:37:13;;;;;;;11.98;8.38;;;;;;;;;;4830977;29;20057;-88
2023/01/21 18:39:40;;;;;;;9.40;7.15;;;;;;;;;;4831885;29;20049;-87
2023/01/21 18:42:06;;;;;;;11.57;8.57;;;;;;;;;;4847680;29;20081;-87
2023/01/21 18:44:32;;;;;;;15.25;8.90;;;;;;;;;;4832937;29;20081;-90
2023/01/21 18:46:58;;;;;;;11.98;7.43;;;;;;;;;;4846207;29;20056;-90
2023/01/21 18:49:26;;;;;;;12.63;7.95;;;;;;;;;;4830410;29;20088;-89
2023/01/21 18:51:52;;;;;;;13.50;7.30;;;;;;;;;;4830945;29;20499;-88
2023/01/21 18:54:18;;;;;;;11.63;7.78;;;;;;;;;;4846382;29;20077;-92
2023/01/21 18:56:45;;;;;;;16.30;8.23;;;;;;;;;;4862628;29;20046;-89
2023/01/21 18:59:19;;;;;;;11.35;8.07;;;;;;;;;;4846339;29;20046;-87
2023/01/21 19:01:45;;;;;;;11.13;8.43;;;;;;;;;;4830948;29;20049;-87
2023/01/21 19:04:14;;;;;;;14.48;8.80;;;;;;;;;;4830710;29;20046;-87
2023/01/21 19:06:40;;;;;;;12.30;8.32;;;;;;;;;;4846215;29;20089;-88
2023/01/21 19:09:25;;;;;;;10.98;7.75;;;;;;;;;;4830895;29;20136;-90
2023/01/21 19:11:51;;;;;;;11.70;8.48;;;;;;;;;;4830582;29;20049;-88
2023/01/21 19:14:18;;;;;;;12.98;7.75;;;;;;;;;;4831037;29;20384;-90
2023/01/21 19:16:44;;;;;;;12.73;7.82;;;;;;;;;;4830747;29;20403;-90
2023/01/21 19:19:11;;;;;;;10.38;7.35;;;;;;;;;;4846510;29;20392;-89
2023/01/21 19:21:38;;;;;;;13.57;8.10;;;;;;;;;;4830401;29;20093;-88
2023/01/21 19:24:04;;;;;;;11.07;7.70;;;;;;;;;;4830856;29;20403;-87
2023/01/21 19:26:30;;;;;;;11.15;7.63;;;;;;;;;;4831361;29;20165;-89